sensor_id;sensor_type;location;lat;lon;timestamp;pressure;altitude;pressure_sealevel;temperature;humidity
19751;BME280;4663;49.120;9.730;2023-03-14T00:00:10;96425.38;;;5.46;100.00
19751;BME280;4663;49.120;9.730;2023-03-14T00:02:36;96429.69;;;5.47;100.00
19751;BME280;4663;49.120;9.730;2023-03-14T00:05:02;96427.66;;;5.28;100.00
19751;BME280;4663;49.120;9.730;2023-03-14T00:07:33;96428.16;;;5.16;100.00
19751;BME280;4663;49.120;9.730;2023-03-14T00:10:01;96431.91;;;5.22;100.00
19751;BME280;4663;49.120;9.730;2023-03-14T00:12:27;96433.41;;;5.46;100.00
19751;BME280;4663;49.120;9.730;2023-03-14T00:14:52;96424.09;;;5.42;100.00
19751;BME280;4663;49.120;9.730;2023-03-14T00:17:17;96417.34;;;5.46;100.00
19751;BME280;4663;49.120;9.730;2023-03-14T00:19:43;96418.59;;;5.50;100.00
19751;BME280;4663;49.120;9.730;2023-03-14T00:22:08;96419.78;;;5.41;100.00
19751;BME280;4663;49.120;9.730;2023-03-14T00:24:33;96408.28;;;5.47;100.00
19751;BME280;4663;49.120;9.730;2023-03-14T00:26:59;96402.97;;;5.76;98.83
19751;BME280;4663;49.120;9.730;2023-03-14T00:29:24;96425.22;;;5.76;98.82
19751;BME280;4663;49.120;9.730;2023-03-14T00:31:49;96418.59;;;5.72;98.30
19751;BME280;4663;49.120;9.730;2023-03-14T00:34:15;96426.56;;;5.66;98.89
19751;BME280;4663;49.120;9.730;2023-03-14T00:36:40;96419.59;;;5.71;98.87
19751;BME280;4663;49.120;9.730;2023-03-14T00:39:05;96397.84;;;5.53;100.00
19751;BME280;4663;49.120;9.730;2023-03-14T00:41:31;96401.72;;;5.50;100.00
19751;BME280;4663;49.120;9.730;2023-03-14T00:43:56;96400.56;;;5.59;99.88
19751;BME280;4663;49.120;9.730;2023-03-14T00:46:21;96410.56;;;5.72;99.47
19751;BME280;4663;49.120;9.730;2023-03-14T00:48:47;96406.53;;;5.83;99.54
19751;BME280;4663;49.120;9.730;2023-03-14T00:51:14;96397.28;;;5.64;99.58
19751;BME280;4663;49.120;9.730;2023-03-14T00:53:40;96401.00;;;5.63;100.00
19751;BME280;4663;49.120;9.730;2023-03-14T00:56:09;96404.31;;;5.65;100.00
19751;BME280;4663;49.120;9.730;2023-03-14T00:58:34;96411.47;;;5.58;100.00
19751;BME280;4663;49.120;9.730;2023-03-14T01:01:06;96406.31;;;5.56;100.00
19751;BME280;4663;49.120;9.730;2023-03-14T01:03:31;96396.44;;;5.57;99.66
19751;BME280;4663;49.120;9.730;2023-03-14T01:06:07;96395.34;;;5.80;99.68
19751;BME280;4663;49.120;9.730;2023-03-14T01:08:32;96391.78;;;5.44;100.00
19751;BME280;4663;49.120;9.730;2023-03-14T01:10:58;96395.34;;;5.51;100.00
19751;BME280;4663;49.120;9.730;2023-03-14T01:13:23;96398.16;;;5.21;100.00
19751;BME280;4663;49.120;9.730;2023-03-14T01:15:48;96402.72;;;5.05;100.00
19751;BME280;4663;49.120;9.730;2023-03-14T01:18:14;96410.72;;;5.05;100.00
19751;BME280;4663;49.120;9.730;2023-03-14T01:20:39;96420.53;;;5.35;100.00
19751;BME280;4663;49.120;9.730;2023-03-14T01:23:04;96411.91;;;5.18;100.00
19751;BME280;4663;49.120;9.730;2023-03-14T01:25:30;96403.25;;;5.37;100.00
19751;BME280;4663;49.120;9.730;2023-03-14T01:27:55;96396.66;;;4.96;100.00
19751;BME280;4663;49.120;9.730;2023-03-14T01:30:20;96381.63;;;4.73;100.00
19751;BME280;4663;49.120;9.730;2023-03-14T01:32:46;96379.50;;;5.06;100.00
19751;BME280;4663;49.120;9.730;2023-03-14T01:35:11;96376.56;;;5.01;100.00
19751;BME280;4663;49.120;9.730;2023-03-14T01:37:37;96377.16;;;4.81;100.00
19751;BME280;4663;49.120;9.730;2023-03-14T01:40:03;96361.69;;;4.98;100.00
19751;BME280;4663;49.120;9.730;2023-03-14T01:42:30;96361.13;;;4.81;100.00
19751;BME280;4663;49.120;9.730;2023-03-14T01:44:58;96353.59;;;4.91;100.00
19751;BME280;4663;49.120;9.730;2023-03-14T01:47:24;96345.34;;;5.08;100.00
19751;BME280;4663;49.120;9.730;2023-03-14T01:49:57;96339.63;;;5.11;100.00
19751;BME280;4663;49.120;9.730;2023-03-14T01:52:28;96333.00;;;4.85;100.00
19751;BME280;4663;49.120;9.730;2023-03-14T01:55:04;96326.38;;;4.81;100.00
19751;BME280;4663;49.120;9.730;2023-03-14T01:57:37;96324.00;;;4.71;100.00
19751;BME280;4663;49.120;9.730;2023-03-14T02:00:14;96312.94;;;4.96;100.00
19751;BME280;4663;49.120;9.730;2023-03-14T02:02:42;96302.94;;;4.83;100.00
19751;BME280;4663;49.120;9.730;2023-03-14T02:05:10;96282.56;;;4.82;100.00
19751;BME280;4663;49.120;9.730;2023-03-14T02:07:48;96274.34;;;4.83;100.00
19751;BME280;4663;49.120;9.730;2023-03-14T02:10:16;96266.78;;;4.87;100.00
19751;BME280;4663;49.120;9.730;2023-03-14T02:12:44;96274.78;;;4.87;100.00
19751;BME280;4663;49.120;9.730;2023-03-14T02:15:10;96280.41;;;4.70;100.00
19751;BME280;4663;49.120;9.730;2023-03-14T02:17:36;96284.31;;;4.53;100.00
19751;BME280;4663;49.120;9.730;2023-03-14T02:22:53;96284.19;;;4.39;100.00
19751;BME280;4663;49.120;9.730;2023-03-14T02:27:47;96287.13;;;4.44;100.00
19751;BME280;4663;49.120;9.730;2023-03-14T02:30:19;96284.41;;;4.59;100.00
19751;BME280;4663;49.120;9.730;2023-03-14T02:32:52;96285.72;;;4.48;100.00
19751;BME280;4663;49.120;9.730;2023-03-14T02:35:22;96286.38;;;4.51;100.00
19751;BME280;4663;49.120;9.730;2023-03-14T02:37:52;96289.47;;;4.32;100.00
19751;BME280;4663;49.120;9.730;2023-03-14T02:40:18;96287.81;;;4.31;100.00
19751;BME280;4663;49.120;9.730;2023-03-14T02:42:44;96289.09;;;4.36;100.00
19751;BME280;4663;49.120;9.730;2023-03-14T02:47:37;96284.97;;;4.33;100.00
19751;BME280;4663;49.120;9.730;2023-03-14T02:50:10;96265.53;;;4.09;100.00
19751;BME280;4663;49.120;9.730;2023-03-14T02:52:37;96267.97;;;4.41;100.00
19751;BME280;4663;49.120;9.730;2023-03-14T02:55:02;96260.03;;;4.47;100.00
19751;BME280;4663;49.120;9.730;2023-03-14T02:57:28;96250.91;;;4.20;100.00
19751;BME280;4663;49.120;9.730;2023-03-14T02:59:58;96248.84;;;4.22;100.00
19751;BME280;4663;49.120;9.730;2023-03-14T03:02:24;96269.59;;;4.57;100.00
19751;BME280;4663;49.120;9.730;2023-03-14T03:04:50;96254.88;;;4.46;100.00
19751;BME280;4663;49.120;9.730;2023-03-14T03:07:15;96255.13;;;4.73;100.00
19751;BME280;4663;49.120;9.730;2023-03-14T03:09:41;96250.47;;;4.60;100.00
19751;BME280;4663;49.120;9.730;2023-03-14T03:12:06;96253.66;;;4.48;100.00
19751;BME280;4663;49.120;9.730;2023-03-14T03:14:31;96255.81;;;4.60;100.00
19751;BME280;4663;49.120;9.730;2023-03-14T03:16:57;96240.44;;;4.62;100.00
19751;BME280;4663;49.120;9.730;2023-03-14T03:19:22;96249.22;;;4.34;100.00
19751;BME280;4663;49.120;9.730;2023-03-14T03:21:48;96239.78;;;4.60;100.00
19751;BME280;4663;49.120;9.730;2023-03-14T03:24:13;96231.38;;;4.63;100.00
19751;BME280;4663;49.120;9.730;2023-03-14T03:26:39;96236.97;;;4.68;100.00
19751;BME280;4663;49.120;9.730;2023-03-14T03:29:04;96236.31;;;4.59;100.00
19751;BME280;4663;49.120;9.730;2023-03-14T03:31:29;96245.56;;;4.42;100.00
19751;BME280;4663;49.120;9.730;2023-03-14T03:33:56;96233.16;;;4.56;100.00
19751;BME280;4663;49.120;9.730;2023-03-14T03:36:24;96220.28;;;4.59;100.00
19751;BME280;4663;49.120;9.730;2023-03-14T03:38:50;96218.16;;;4.55;100.00
19751;BME280;4663;49.120;9.730;2023-03-14T03:41:15;96209.59;;;4.59;100.00
19751;BME280;4663;49.120;9.730;2023-03-14T03:43:41;96207.09;;;4.58;100.00
19751;BME280;4663;49.120;9.730;2023-03-14T03:46:07;96214.28;;;4.36;100.00
19751;BME280;4663;49.120;9.730;2023-03-14T03:48:33;96216.78;;;4.37;100.00
19751;BME280;4663;49.120;9.730;2023-03-14T03:50:58;96208.47;;;4.32;100.00
19751;BME280;4663;49.120;9.730;2023-03-14T03:53:24;96221.53;;;4.42;100.00
19751;BME280;4663;49.120;9.730;2023-03-14T03:55:49;96210.91;;;4.27;100.00
19751;BME280;4663;49.120;9.730;2023-03-14T03:58:15;96203.84;;;4.41;99.99
19751;BME280;4663;49.120;9.730;2023-03-14T04:00:40;96209.44;;;4.24;100.00
19751;BME280;4663;49.120;9.730;2023-03-14T04:03:06;96211.03;;;4.18;100.00
19751;BME280;4663;49.120;9.730;2023-03-14T04:05:31;96206.09;;;4.37;100.00
19751;BME280;4663;49.120;9.730;2023-03-14T04:07:57;96211.22;;;4.17;100.00
19751;BME280;4663;49.120;9.730;2023-03-14T04:10:22;96214.53;;;4.41;99.67
19751;BME280;4663;49.120;9.730;2023-03-14T04:12:47;96212.66;;;3.98;100.00
19751;BME280;4663;49.120;9.730;2023-03-14T04:15:13;96205.22;;;4.15;100.00
19751;BME280;4663;49.120;9.730;2023-03-14T04:17:38;96201.94;;;4.13;100.00
19751;BME280;4663;49.120;9.730;2023-03-14T04:20:04;96207.44;;;4.11;100.00
19751;BME280;4663;49.120;9.730;2023-03-14T04:22:30;96198.78;;;4.09;100.00
19751;BME280;4663;49.120;9.730;2023-03-14T04:24:55;96196.84;;;4.18;100.00
19751;BME280;4663;49.120;9.730;2023-03-14T04:27:21;96192.75;;;4.22;99.96
19751;BME280;4663;49.120;9.730;2023-03-14T04:29:46;96197.31;;;3.85;100.00
19751;BME280;4663;49.120;9.730;2023-03-14T04:32:11;96194.22;;;4.03;100.00
19751;BME280;4663;49.120;9.730;2023-03-14T04:34:37;96189.25;;;4.00;100.00
19751;BME280;4663;49.120;9.730;2023-03-14T04:37:02;96182.75;;;3.87;100.00
19751;BME280;4663;49.120;9.730;2023-03-14T04:39:28;96197.06;;;4.01;100.00
19751;BME280;4663;49.120;9.730;2023-03-14T04:41:53;96187.25;;;3.87;99.87
19751;BME280;4663;49.120;9.730;2023-03-14T04:44:19;96186.13;;;3.96;100.00
19751;BME280;4663;49.120;9.730;2023-03-14T04:46:44;96179.72;;;3.90;100.00
19751;BME280;4663;49.120;9.730;2023-03-14T04:49:10;96185.19;;;4.04;99.43
19751;BME280;4663;49.120;9.730;2023-03-14T04:51:35;96186.94;;;3.96;99.80
19751;BME280;4663;49.120;9.730;2023-03-14T04:54:00;96185.13;;;3.97;100.00
19751;BME280;4663;49.120;9.730;2023-03-14T04:56:26;96185.06;;;3.75;100.00
19751;BME280;4663;49.120;9.730;2023-03-14T04:58:52;96184.50;;;3.80;100.00
19751;BME280;4663;49.120;9.730;2023-03-14T05:01:18;96179.41;;;3.85;99.74
19751;BME280;4663;49.120;9.730;2023-03-14T05:03:43;96180.22;;;4.01;99.21
19751;BME280;4663;49.120;9.730;2023-03-14T05:06:08;96170.53;;;3.78;99.83
19751;BME280;4663;49.120;9.730;2023-03-14T05:08:34;96160.97;;;4.05;98.74
19751;BME280;4663;49.120;9.730;2023-03-14T05:10:59;96155.09;;;3.95;99.22
19751;BME280;4663;49.120;9.730;2023-03-14T05:13:25;96156.41;;;3.84;99.46
19751;BME280;4663;49.120;9.730;2023-03-14T05:15:50;96151.50;;;3.66;99.28
19751;BME280;4663;49.120;9.730;2023-03-14T05:18:16;96145.50;;;3.79;99.73
19751;BME280;4663;49.120;9.730;2023-03-14T05:20:42;96135.41;;;3.59;99.96
19751;BME280;4663;49.120;9.730;2023-03-14T05:23:10;96133.75;;;3.58;99.56
19751;BME280;4663;49.120;9.730;2023-03-14T05:25:35;96131.41;;;3.70;99.55
19751;BME280;4663;49.120;9.730;2023-03-14T05:28:01;96135.44;;;3.81;97.99
19751;BME280;4663;49.120;9.730;2023-03-14T05:30:26;96136.41;;;3.43;99.32
19751;BME280;4663;49.120;9.730;2023-03-14T05:32:53;96131.34;;;3.63;99.22
19751;BME280;4663;49.120;9.730;2023-03-14T05:35:19;96132.84;;;3.51;98.98
19751;BME280;4663;49.120;9.730;2023-03-14T05:37:44;96116.75;;;3.44;99.46
19751;BME280;4663;49.120;9.730;2023-03-14T05:40:10;96122.44;;;3.56;98.87
19751;BME280;4663;49.120;9.730;2023-03-14T05:42:36;96121.59;;;3.70;97.05
19751;BME280;4663;49.120;9.730;2023-03-14T05:45:01;96123.47;;;3.55;98.67
19751;BME280;4663;49.120;9.730;2023-03-14T05:47:27;96121.69;;;3.62;97.93
19751;BME280;4663;49.120;9.730;2023-03-14T05:49:53;96122.06;;;3.44;98.67
19751;BME280;4663;49.120;9.730;2023-03-14T05:52:18;96116.38;;;3.47;98.50
19751;BME280;4663;49.120;9.730;2023-03-14T05:54:43;96117.56;;;3.44;98.78
19751;BME280;4663;49.120;9.730;2023-03-14T05:57:09;96110.56;;;3.59;97.93
19751;BME280;4663;49.120;9.730;2023-03-14T05:59:34;96118.84;;;3.49;97.64
19751;BME280;4663;49.120;9.730;2023-03-14T06:01:59;96109.72;;;3.43;97.46
19751;BME280;4663;49.120;9.730;2023-03-14T06:04:25;96118.44;;;3.67;96.82
19751;BME280;4663;49.120;9.730;2023-03-14T06:06:50;96114.91;;;3.44;97.06
19751;BME280;4663;49.120;9.730;2023-03-14T06:09:16;96117.09;;;3.56;97.17
19751;BME280;4663;49.120;9.730;2023-03-14T06:11:41;96116.19;;;3.64;97.43
19751;BME280;4663;49.120;9.730;2023-03-14T06:14:07;96121.59;;;3.40;98.49
19751;BME280;4663;49.120;9.730;2023-03-14T06:16:32;96121.00;;;3.75;97.60
19751;BME280;4663;49.120;9.730;2023-03-14T06:18:58;96112.63;;;3.78;96.20
19751;BME280;4663;49.120;9.730;2023-03-14T06:21:23;96114.47;;;4.00;96.24
19751;BME280;4663;49.120;9.730;2023-03-14T06:23:49;96117.03;;;3.86;97.28
19751;BME280;4663;49.120;9.730;2023-03-14T06:26:14;96109.41;;;4.27;95.93
19751;BME280;4663;49.120;9.730;2023-03-14T06:28:40;96116.16;;;4.23;96.35
19751;BME280;4663;49.120;9.730;2023-03-14T06:31:05;96114.75;;;4.27;97.08
19751;BME280;4663;49.120;9.730;2023-03-14T06:33:31;96120.47;;;4.24;95.91
19751;BME280;4663;49.120;9.730;2023-03-14T06:35:56;96113.47;;;4.23;94.60
19751;BME280;4663;49.120;9.730;2023-03-14T06:38:21;96113.34;;;4.31;96.37
19751;BME280;4663;49.120;9.730;2023-03-14T06:40:47;96107.47;;;4.20;96.07
19751;BME280;4663;49.120;9.730;2023-03-14T06:43:12;96103.91;;;4.35;96.75
19751;BME280;4663;49.120;9.730;2023-03-14T06:45:38;96101.78;;;4.52;93.39
19751;BME280;4663;49.120;9.730;2023-03-14T06:48:03;96095.31;;;4.68;94.11
19751;BME280;4663;49.120;9.730;2023-03-14T06:50:29;96096.44;;;4.52;94.48
19751;BME280;4663;49.120;9.730;2023-03-14T06:52:54;96095.56;;;4.73;91.99
19751;BME280;4663;49.120;9.730;2023-03-14T06:55:20;96091.16;;;4.59;92.20
19751;BME280;4663;49.120;9.730;2023-03-14T06:57:46;96079.38;;;4.82;91.73
19751;BME280;4663;49.120;9.730;2023-03-14T07:00:13;96086.38;;;4.83;92.35
19751;BME280;4663;49.120;9.730;2023-03-14T07:02:39;96085.53;;;4.82;92.08
19751;BME280;4663;49.120;9.730;2023-03-14T07:05:05;96085.34;;;4.84;92.83
19751;BME280;4663;49.120;9.730;2023-03-14T07:07:30;96099.75;;;5.11;90.64
19751;BME280;4663;49.120;9.730;2023-03-14T07:09:56;96104.56;;;5.30;91.51
19751;BME280;4663;49.120;9.730;2023-03-14T07:12:21;96105.72;;;5.62;90.26
19751;BME280;4663;49.120;9.730;2023-03-14T07:14:47;96090.13;;;5.93;88.06
19751;BME280;4663;49.120;9.730;2023-03-14T07:17:12;96103.78;;;6.32;88.10
19751;BME280;4663;49.120;9.730;2023-03-14T07:19:38;96097.59;;;6.45;84.39
19751;BME280;4663;49.120;9.730;2023-03-14T07:22:04;96100.88;;;6.95;84.23
19751;BME280;4663;49.120;9.730;2023-03-14T07:24:30;96102.09;;;7.05;82.27
19751;BME280;4663;49.120;9.730;2023-03-14T07:26:55;96098.41;;;7.59;81.40
19751;BME280;4663;49.120;9.730;2023-03-14T07:29:21;96106.00;;;8.15;80.32
19751;BME280;4663;49.120;9.730;2023-03-14T07:31:46;96114.88;;;8.15;79.84
19751;BME280;4663;49.120;9.730;2023-03-14T07:34:13;96098.78;;;7.69;78.34
19751;BME280;4663;49.120;9.730;2023-03-14T07:36:38;96113.41;;;7.80;79.48
19751;BME280;4663;49.120;9.730;2023-03-14T07:39:04;96122.09;;;7.76;82.41
19751;BME280;4663;49.120;9.730;2023-03-14T07:41:30;96108.38;;;7.45;80.82
19751;BME280;4663;49.120;9.730;2023-03-14T07:43:55;96113.50;;;7.53;83.09
19751;BME280;4663;49.120;9.730;2023-03-14T07:46:21;96108.88;;;7.15;81.68
19751;BME280;4663;49.120;9.730;2023-03-14T07:48:46;96101.28;;;7.12;80.26
19751;BME280;4663;49.120;9.730;2023-03-14T07:51:12;96112.44;;;7.02;80.57
19751;BME280;4663;49.120;9.730;2023-03-14T07:53:37;96096.72;;;7.05;80.13
19751;BME280;4663;49.120;9.730;2023-03-14T07:56:03;96125.59;;;7.17;82.68
19751;BME280;4663;49.120;9.730;2023-03-14T07:58:28;96112.41;;;7.09;81.66
19751;BME280;4663;49.120;9.730;2023-03-14T08:00:58;96118.22;;;6.92;82.69
19751;BME280;4663;49.120;9.730;2023-03-14T08:03:24;96120.91;;;6.99;84.67
19751;BME280;4663;49.120;9.730;2023-03-14T08:05:50;96099.03;;;6.88;80.05
19751;BME280;4663;49.120;9.730;2023-03-14T08:08:16;96117.38;;;7.12;81.66
19751;BME280;4663;49.120;9.730;2023-03-14T08:10:41;96115.25;;;7.27;81.01
19751;BME280;4663;49.120;9.730;2023-03-14T08:13:07;96101.00;;;7.27;80.66
19751;BME280;4663;49.120;9.730;2023-03-14T08:15:32;96101.59;;;7.36;79.63
19751;BME280;4663;49.120;9.730;2023-03-14T08:17:58;96106.31;;;7.47;80.19
19751;BME280;4663;49.120;9.730;2023-03-14T08:20:28;96105.63;;;7.59;79.35
19751;BME280;4663;49.120;9.730;2023-03-14T08:22:57;96111.84;;;7.59;80.60
19751;BME280;4663;49.120;9.730;2023-03-14T08:25:24;96096.06;;;7.76;80.51
19751;BME280;4663;49.120;9.730;2023-03-14T08:27:49;96096.47;;;7.80;80.15
19751;BME280;4663;49.120;9.730;2023-03-14T08:30:17;96108.03;;;7.80;79.53
19751;BME280;4663;49.120;9.730;2023-03-14T08:32:43;96108.41;;;7.91;79.06
19751;BME280;4663;49.120;9.730;2023-03-14T08:35:08;96096.69;;;8.17;77.74
19751;BME280;4663;49.120;9.730;2023-03-14T08:37:35;96107.59;;;8.48;78.69
19751;BME280;4663;49.120;9.730;2023-03-14T08:40:02;96101.69;;;8.65;77.49
19751;BME280;4663;49.120;9.730;2023-03-14T08:42:32;96099.31;;;9.01;76.31
19751;BME280;4663;49.120;9.730;2023-03-14T08:44:57;96093.44;;;8.59;76.19
19751;BME280;4663;49.120;9.730;2023-03-14T08:47:23;96102.09;;;8.62;76.50
19751;BME280;4663;49.120;9.730;2023-03-14T08:49:48;96098.63;;;8.80;75.39
19751;BME280;4663;49.120;9.730;2023-03-14T08:52:13;96084.41;;;8.54;74.67
19751;BME280;4663;49.120;9.730;2023-03-14T08:54:41;96080.13;;;8.14;74.62
19751;BME280;4663;49.120;9.730;2023-03-14T08:57:08;96109.44;;;8.22;78.13
19751;BME280;4663;49.120;9.730;2023-03-14T08:59:33;96099.47;;;8.29;76.91
19751;BME280;4663;49.120;9.730;2023-03-14T09:01:58;96079.94;;;8.41;74.24
19751;BME280;4663;49.120;9.730;2023-03-14T09:04:24;96102.06;;;8.43;75.98
19751;BME280;4663;49.120;9.730;2023-03-14T09:06:49;96089.38;;;8.50;74.83
19751;BME280;4663;49.120;9.730;2023-03-14T09:09:15;96100.25;;;8.37;77.34
19751;BME280;4663;49.120;9.730;2023-03-14T09:11:40;96091.34;;;8.11;75.81
19751;BME280;4663;49.120;9.730;2023-03-14T09:14:05;96100.75;;;8.52;77.72
19751;BME280;4663;49.120;9.730;2023-03-14T09:16:33;96097.72;;;8.42;74.41
19751;BME280;4663;49.120;9.730;2023-03-14T09:18:58;96099.91;;;8.26;76.99
19751;BME280;4663;49.120;9.730;2023-03-14T09:21:25;96111.00;;;8.37;77.86
19751;BME280;4663;49.120;9.730;2023-03-14T09:23:51;96107.09;;;8.32;75.23
19751;BME280;4663;49.120;9.730;2023-03-14T09:26:16;96111.72;;;8.51;77.30
19751;BME280;4663;49.120;9.730;2023-03-14T09:28:42;96114.31;;;8.39;77.26
19751;BME280;4663;49.120;9.730;2023-03-14T09:31:08;96112.16;;;8.73;76.30
19751;BME280;4663;49.120;9.730;2023-03-14T09:33:34;96102.44;;;8.72;74.73
19751;BME280;4663;49.120;9.730;2023-03-14T09:36:01;96107.66;;;8.67;74.96
19751;BME280;4663;49.120;9.730;2023-03-14T09:38:27;96119.66;;;8.64;76.38
19751;BME280;4663;49.120;9.730;2023-03-14T09:40:53;96146.69;;;8.76;77.16
19751;BME280;4663;49.120;9.730;2023-03-14T09:43:19;96118.31;;;8.55;74.26
19751;BME280;4663;49.120;9.730;2023-03-14T09:45:48;96129.47;;;8.58;74.49
19751;BME280;4663;49.120;9.730;2023-03-14T09:48:21;96139.44;;;8.51;75.24
19751;BME280;4663;49.120;9.730;2023-03-14T09:50:51;96125.91;;;8.32;73.43
19751;BME280;4663;49.120;9.730;2023-03-14T09:53:20;96164.78;;;8.37;77.81
19751;BME280;4663;49.120;9.730;2023-03-14T09:55:49;96157.06;;;8.15;76.65
19751;BME280;4663;49.120;9.730;2023-03-14T09:58:22;96163.00;;;7.85;78.60
19751;BME280;4663;49.120;9.730;2023-03-14T10:00:54;96191.66;;;8.37;79.91
19751;BME280;4663;49.120;9.730;2023-03-14T10:05:49;96184.28;;;8.25;83.51
19751;BME280;4663;49.120;9.730;2023-03-14T10:08:14;96176.69;;;8.48;84.63
19751;BME280;4663;49.120;9.730;2023-03-14T10:10:40;96172.56;;;8.13;83.08
19751;BME280;4663;49.120;9.730;2023-03-14T10:13:14;96174.63;;;8.50;82.37
19751;BME280;4663;49.120;9.730;2023-03-14T10:15:40;96165.03;;;8.86;81.25
19751;BME280;4663;49.120;9.730;2023-03-14T10:18:11;96164.31;;;8.72;80.88
19751;BME280;4663;49.120;9.730;2023-03-14T10:20:46;96162.94;;;9.14;79.48
19751;BME280;4663;49.120;9.730;2023-03-14T10:25:39;96166.88;;;9.55;78.62
19751;BME280;4663;49.120;9.730;2023-03-14T10:28:22;96161.91;;;9.33;76.77
19751;BME280;4663;49.120;9.730;2023-03-14T10:30:48;96159.97;;;9.41;77.57
19751;BME280;4663;49.120;9.730;2023-03-14T10:33:25;96151.47;;;9.44;76.74
19751;BME280;4663;49.120;9.730;2023-03-14T10:38:40;96156.44;;;9.78;75.19
19751;BME280;4663;49.120;9.730;2023-03-14T10:41:19;96142.47;;;9.69;72.80
19751;BME280;4663;49.120;9.730;2023-03-14T10:43:50;96145.75;;;9.52;75.38
19751;BME280;4663;49.120;9.730;2023-03-14T10:46:18;96141.69;;;9.80;75.24
19751;BME280;4663;49.120;9.730;2023-03-14T10:48:44;96136.97;;;9.75;74.73
19751;BME280;4663;49.120;9.730;2023-03-14T10:56:35;96122.47;;;10.38;71.04
19751;BME280;4663;49.120;9.730;2023-03-14T10:59:03;96107.69;;;9.98;69.11
19751;BME280;4663;49.120;9.730;2023-03-14T11:02:31;96111.72;;;10.07;68.92
19751;BME280;4663;49.120;9.730;2023-03-14T11:04:47;96108.72;;;9.47;69.82
19751;BME280;4663;49.120;9.730;2023-03-14T11:07:28;96113.53;;;9.95;70.68
19751;BME280;4663;49.120;9.730;2023-03-14T11:18:16;96118.31;;;9.62;71.45
19751;BME280;4663;49.120;9.730;2023-03-14T11:23:50;96126.69;;;9.35;71.33
19751;BME280;4663;49.120;9.730;2023-03-14T11:28:57;96137.69;;;9.33;70.87
19751;BME280;4663;49.120;9.730;2023-03-14T11:36:39;96163.59;;;8.83;78.79
19751;BME280;4663;49.120;9.730;2023-03-14T11:39:15;96180.41;;;8.79;79.55
19751;BME280;4663;49.120;9.730;2023-03-14T11:41:43;96173.31;;;8.59;78.77
19751;BME280;4663;49.120;9.730;2023-03-14T11:44:16;96184.94;;;8.53;81.99
19751;BME280;4663;49.120;9.730;2023-03-14T11:46:50;96188.47;;;8.14;85.27
19751;BME280;4663;49.120;9.730;2023-03-14T11:49:38;96181.41;;;8.20;83.56
19751;BME280;4663;49.120;9.730;2023-03-14T11:52:13;96186.63;;;8.47;85.52
19751;BME280;4663;49.120;9.730;2023-03-14T11:54:52;96184.91;;;8.59;84.10
19751;BME280;4663;49.120;9.730;2023-03-14T11:57:21;96172.16;;;8.48;82.70
19751;BME280;4663;49.120;9.730;2023-03-14T11:59:52;96176.84;;;8.27;82.11
19751;BME280;4663;49.120;9.730;2023-03-14T12:13:08;96190.44;;;7.93;85.21
19751;BME280;4663;49.120;9.730;2023-03-14T12:15:39;96189.03;;;7.77;86.39
19751;BME280;4663;49.120;9.730;2023-03-14T12:18:18;96190.75;;;7.58;85.02
19751;BME280;4663;49.120;9.730;2023-03-14T12:20:55;96193.06;;;7.34;85.76
19751;BME280;4663;49.120;9.730;2023-03-14T12:23:23;96197.25;;;6.96;88.05
19751;BME280;4663;49.120;9.730;2023-03-14T12:26:16;96197.25;;;6.96;89.44
19751;BME280;4663;49.120;9.730;2023-03-14T12:28:44;96205.09;;;6.64;91.70
19751;BME280;4663;49.120;9.730;2023-03-14T12:42:04;96221.19;;;6.84;89.96
19751;BME280;4663;49.120;9.730;2023-03-14T12:46:59;96229.63;;;6.61;90.37
19751;BME280;4663;49.120;9.730;2023-03-14T12:49:32;96227.97;;;6.66;90.25
19751;BME280;4663;49.120;9.730;2023-03-14T12:52:01;96237.50;;;6.89;89.11
19751;BME280;4663;49.120;9.730;2023-03-14T12:54:34;96242.03;;;6.82;88.77
19751;BME280;4663;49.120;9.730;2023-03-14T13:00:00;96248.78;;;6.58;90.06
19751;BME280;4663;49.120;9.730;2023-03-14T13:02:28;96246.84;;;6.38;89.53
19751;BME280;4663;49.120;9.730;2023-03-14T13:05:04;96255.94;;;6.37;89.22
19751;BME280;4663;49.120;9.730;2023-03-14T13:15:22;96323.72;;;5.88;92.71
19751;BME280;4663;49.120;9.730;2023-03-14T13:17:49;96342.09;;;5.63;91.81
19751;BME280;4663;49.120;9.730;2023-03-14T13:22:53;96376.38;;;5.74;93.83
19751;BME280;4663;49.120;9.730;2023-03-14T13:25:19;96379.88;;;5.46;92.65
19751;BME280;4663;49.120;9.730;2023-03-14T13:27:46;96388.16;;;5.30;92.82
19751;BME280;4663;49.120;9.730;2023-03-14T13:30:17;96382.34;;;5.48;91.79
19751;BME280;4663;49.120;9.730;2023-03-14T13:32:44;96397.03;;;4.93;90.48
19751;BME280;4663;49.120;9.730;2023-03-14T13:35:19;96405.31;;;4.77;89.50
19751;BME280;4663;49.120;9.730;2023-03-14T13:37:45;96420.63;;;5.05;89.15
19751;BME280;4663;49.120;9.730;2023-03-14T13:40:24;96411.69;;;4.97;86.77
19751;BME280;4663;49.120;9.730;2023-03-14T13:43:03;96433.47;;;4.94;87.86
19751;BME280;4663;49.120;9.730;2023-03-14T13:45:29;96441.22;;;4.74;85.48
19751;BME280;4663;49.120;9.730;2023-03-14T13:47:55;96464.44;;;4.89;88.00
19751;BME280;4663;49.120;9.730;2023-03-14T13:50:20;96473.84;;;4.99;87.76
19751;BME280;4663;49.120;9.730;2023-03-14T13:52:46;96468.47;;;4.99;83.41
19751;BME280;4663;49.120;9.730;2023-03-14T13:55:16;96482.38;;;4.58;82.03
19751;BME280;4663;49.120;9.730;2023-03-14T13:57:50;96489.63;;;4.64;83.53
19751;BME280;4663;49.120;9.730;2023-03-14T14:00:22;96493.50;;;4.62;84.86
19751;BME280;4663;49.120;9.730;2023-03-14T14:02:53;96497.13;;;4.69;85.08
19751;BME280;4663;49.120;9.730;2023-03-14T14:05:18;96491.69;;;4.62;82.72
19751;BME280;4663;49.120;9.730;2023-03-14T14:07:44;96499.19;;;5.04;80.21
19751;BME280;4663;49.120;9.730;2023-03-14T14:10:11;96512.00;;;5.23;80.82
19751;BME280;4663;49.120;9.730;2023-03-14T14:13:02;96518.56;;;5.21;79.51
19751;BME280;4663;49.120;9.730;2023-03-14T14:15:31;96531.94;;;5.58;78.52
19751;BME280;4663;49.120;9.730;2023-03-14T14:18:01;96517.72;;;5.20;73.48
19751;BME280;4663;49.120;9.730;2023-03-14T14:20:31;96537.16;;;5.44;74.57
19751;BME280;4663;49.120;9.730;2023-03-14T14:23:01;96541.06;;;5.27;74.85
19751;BME280;4663;49.120;9.730;2023-03-14T14:25:31;96559.84;;;5.48;76.30
19751;BME280;4663;49.120;9.730;2023-03-14T14:27:56;96567.09;;;5.18;75.13
19751;BME280;4663;49.120;9.730;2023-03-14T14:30:29;96576.50;;;4.98;72.11
19751;BME280;4663;49.120;9.730;2023-03-14T14:33:11;96575.22;;;5.24;72.21
19751;BME280;4663;49.120;9.730;2023-03-14T14:35:37;96582.59;;;5.22;72.31